sensor_id;sensor_type;location;lat;lon;timestamp;pressure;altitude;pressure_sealevel;temperature;humidity
11124;BME280;5616;42.692;23.312;2023-04-29T00:02:19;95180.25;;;8.79;64.98
11124;BME280;5616;42.692;23.312;2023-04-29T00:04:46;95183.69;;;8.55;65.20
11124;BME280;5616;42.692;23.312;2023-04-29T00:07:13;95177.81;;;8.78;64.24
11124;BME280;5616;42.692;23.312;2023-04-29T00:09:40;95185.84;;;8.83;64.01
11124;BME280;5616;42.692;23.312;2023-04-29T00:12:07;95188.47;;;8.67;64.57
11124;BME280;5616;42.692;23.312;2023-04-29T00:14:34;95186.16;;;8.80;65.21
11124;BME280;5616;42.692;23.312;2023-04-29T00:17:01;95186.56;;;8.69;65.59
11124;BME280;5616;42.692;23.312;2023-04-29T00:19:29;95191.41;;;8.55;66.20
11124;BME280;5616;42.692;23.312;2023-04-29T00:21:56;95192.34;;;8.63;66.04
11124;BME280;5616;42.692;23.312;2023-04-29T00:24:24;95192.50;;;8.69;64.60
11124;BME280;5616;42.692;23.312;2023-04-29T00:26:50;95190.38;;;8.73;65.96
11124;BME280;5616;42.692;23.312;2023-04-29T00:29:17;95194.75;;;8.64;65.15
11124;BME280;5616;42.692;23.312;2023-04-29T00:31:45;95198.34;;;8.55;65.76
11124;BME280;5616;42.692;23.312;2023-04-29T00:34:12;95201.03;;;8.61;64.72
11124;BME280;5616;42.692;23.312;2023-04-29T00:36:40;95192.38;;;8.54;66.36
11124;BME280;5616;42.692;23.312;2023-04-29T00:39:07;95192.28;;;8.40;66.50
11124;BME280;5616;42.692;23.312;2023-04-29T00:41:33;95187.91;;;8.32;65.93
11124;BME280;5616;42.692;23.312;2023-04-29T00:44:00;95191.00;;;8.28;65.82
11124;BME280;5616;42.692;23.312;2023-04-29T00:46:27;95180.69;;;8.20;65.89
11124;BME280;5616;42.692;23.312;2023-04-29T00:48:54;95187.94;;;8.16;65.58
11124;BME280;5616;42.692;23.312;2023-04-29T00:51:21;95184.56;;;8.08;65.64
11124;BME280;5616;42.692;23.312;2023-04-29T00:53:49;95181.06;;;8.00;67.16
11124;BME280;5616;42.692;23.312;2023-04-29T00:56:16;95177.03;;;7.98;66.35
11124;BME280;5616;42.692;23.312;2023-04-29T00:58:45;95170.59;;;8.02;67.29
11124;BME280;5616;42.692;23.312;2023-04-29T01:01:15;95175.41;;;8.05;67.45
11124;BME280;5616;42.692;23.312;2023-04-29T01:03:42;95160.81;;;7.97;65.74
11124;BME280;5616;42.692;23.312;2023-04-29T01:06:32;95165.59;;;8.09;65.57
11124;BME280;5616;42.692;23.312;2023-04-29T01:09:21;95159.63;;;8.24;64.89
11124;BME280;5616;42.692;23.312;2023-04-29T01:11:54;95153.38;;;8.35;63.77
11124;BME280;5616;42.692;23.312;2023-04-29T01:14:27;95153.84;;;8.30;63.67
11124;BME280;5616;42.692;23.312;2023-04-29T01:16:59;95156.09;;;8.33;63.91
11124;BME280;5616;42.692;23.312;2023-04-29T01:19:38;95157.72;;;8.34;64.31
11124;BME280;5616;42.692;23.312;2023-04-29T01:22:06;95142.13;;;8.28;64.24
11124;BME280;5616;42.692;23.312;2023-04-29T01:24:35;95148.72;;;8.14;65.16
11124;BME280;5616;42.692;23.312;2023-04-29T01:27:10;95150.34;;;7.83;66.86
11124;BME280;5616;42.692;23.312;2023-04-29T01:29:45;95149.09;;;7.95;66.07
11124;BME280;5616;42.692;23.312;2023-04-29T01:32:17;95156.00;;;7.86;67.00
11124;BME280;5616;42.692;23.312;2023-04-29T01:34:54;95150.03;;;7.94;67.55
11124;BME280;5616;42.692;23.312;2023-04-29T01:37:30;95157.75;;;7.94;66.67
11124;BME280;5616;42.692;23.312;2023-04-29T01:40:09;95155.50;;;7.75;66.99
11124;BME280;5616;42.692;23.312;2023-04-29T01:42:45;95150.03;;;7.54;66.97
11124;BME280;5616;42.692;23.312;2023-04-29T01:45:17;95143.31;;;7.45;67.90
11124;BME280;5616;42.692;23.312;2023-04-29T01:47:46;95150.50;;;7.33;68.12
11124;BME280;5616;42.692;23.312;2023-04-29T01:50:14;95143.00;;;7.48;67.69
11124;BME280;5616;42.692;23.312;2023-04-29T01:52:41;95147.16;;;7.65;66.74
11124;BME280;5616;42.692;23.312;2023-04-29T01:55:09;95150.03;;;7.70;67.94
11124;BME280;5616;42.692;23.312;2023-04-29T01:57:47;95147.78;;;7.67;67.30
11124;BME280;5616;42.692;23.312;2023-04-29T02:00:33;95149.41;;;7.68;68.48
11124;BME280;5616;42.692;23.312;2023-04-29T02:03:00;95148.78;;;7.82;67.25
11124;BME280;5616;42.692;23.312;2023-04-29T02:05:34;95137.19;;;7.70;67.83
11124;BME280;5616;42.692;23.312;2023-04-29T02:08:01;95154.88;;;7.73;69.18
11124;BME280;5616;42.692;23.312;2023-04-29T02:10:32;95152.63;;;7.78;67.81
11124;BME280;5616;42.692;23.312;2023-04-29T02:13:26;95151.03;;;7.69;68.32
11124;BME280;5616;42.692;23.312;2023-04-29T02:15:53;95153.75;;;7.75;67.36
11124;BME280;5616;42.692;23.312;2023-04-29T02:18:20;95158.25;;;7.73;67.78
11124;BME280;5616;42.692;23.312;2023-04-29T02:20:47;95157.44;;;7.65;67.78
11124;BME280;5616;42.692;23.312;2023-04-29T02:23:16;95147.97;;;7.65;67.91
11124;BME280;5616;42.692;23.312;2023-04-29T02:25:44;95148.47;;;7.69;66.81
11124;BME280;5616;42.692;23.312;2023-04-29T02:28:11;95156.16;;;7.77;65.72
11124;BME280;5616;42.692;23.312;2023-04-29T02:30:39;95155.69;;;7.73;65.61
11124;BME280;5616;42.692;23.312;2023-04-29T02:33:06;95146.34;;;7.64;65.94
11124;BME280;5616;42.692;23.312;2023-04-29T02:35:32;95150.03;;;7.46;65.83
11124;BME280;5616;42.692;23.312;2023-04-29T02:37:59;95151.31;;;7.17;66.88
11124;BME280;5616;42.692;23.312;2023-04-29T02:40:26;95149.09;;;7.38;65.17
11124;BME280;5616;42.692;23.312;2023-04-29T02:42:55;95149.59;;;7.50;64.86
11124;BME280;5616;42.692;23.312;2023-04-29T02:45:22;95151.97;;;7.35;65.96
11124;BME280;5616;42.692;23.312;2023-04-29T02:47:48;95153.28;;;7.48;65.47
11124;BME280;5616;42.692;23.312;2023-04-29T02:50:15;95152.28;;;7.49;64.69
11124;BME280;5616;42.692;23.312;2023-04-29T02:52:42;95154.84;;;7.24;65.69
11124;BME280;5616;42.692;23.312;2023-04-29T02:55:09;95160.47;;;7.28;66.62
11124;BME280;5616;42.692;23.312;2023-04-29T02:57:36;95160.09;;;6.99;67.15
11124;BME280;5616;42.692;23.312;2023-04-29T03:00:05;95174.38;;;7.01;67.07
11124;BME280;5616;42.692;23.312;2023-04-29T03:02:33;95179.53;;;7.09;67.32
11124;BME280;5616;42.692;23.312;2023-04-29T03:05:00;95173.13;;;7.13;65.99
11124;BME280;5616;42.692;23.312;2023-04-29T03:07:27;95165.13;;;7.16;66.96
11124;BME280;5616;42.692;23.312;2023-04-29T03:09:54;95166.06;;;7.15;66.34
11124;BME280;5616;42.692;23.312;2023-04-29T03:12:21;95167.31;;;7.11;66.95
11124;BME280;5616;42.692;23.312;2023-04-29T03:14:48;95163.78;;;6.96;67.76
11124;BME280;5616;42.692;23.312;2023-04-29T03:17:17;95170.47;;;6.81;68.16
11124;BME280;5616;42.692;23.312;2023-04-29T03:19:44;95173.34;;;6.78;67.97
11124;BME280;5616;42.692;23.312;2023-04-29T03:22:12;95175.63;;;6.89;67.64
11124;BME280;5616;42.692;23.312;2023-04-29T03:24:41;95180.00;;;7.05;67.19
11124;BME280;5616;42.692;23.312;2023-04-29T03:27:09;95185.50;;;7.18;66.83
11124;BME280;5616;42.692;23.312;2023-04-29T03:29:36;95192.31;;;6.93;67.35
11124;BME280;5616;42.692;23.312;2023-04-29T03:32:03;95196.59;;;6.76;68.73
11124;BME280;5616;42.692;23.312;2023-04-29T03:34:32;95205.66;;;6.97;68.69
11124;BME280;5616;42.692;23.312;2023-04-29T03:37:16;95197.50;;;7.09;67.88
11124;BME280;5616;42.692;23.312;2023-04-29T03:39:47;95198.03;;;7.21;67.21
11124;BME280;5616;42.692;23.312;2023-04-29T03:42:14;95209.06;;;7.13;68.52
11124;BME280;5616;42.692;23.312;2023-04-29T03:44:40;95207.75;;;7.09;68.75
11124;BME280;5616;42.692;23.312;2023-04-29T03:47:08;95197.97;;;7.05;68.51
11124;BME280;5616;42.692;23.312;2023-04-29T03:49:36;95196.81;;;6.91;69.08
11124;BME280;5616;42.692;23.312;2023-04-29T03:52:03;95197.75;;;6.82;68.14
11124;BME280;5616;42.692;23.312;2023-04-29T03:54:31;95190.41;;;6.95;68.09
11124;BME280;5616;42.692;23.312;2023-04-29T03:56:58;95192.31;;;6.93;68.42
11124;BME280;5616;42.692;23.312;2023-04-29T03:59:27;95190.38;;;6.87;69.52
11124;BME280;5616;42.692;23.312;2023-04-29T04:01:53;95192.47;;;6.92;70.02
11124;BME280;5616;42.692;23.312;2023-04-29T04:04:20;95189.72;;;6.85;70.07
11124;BME280;5616;42.692;23.312;2023-04-29T04:06:50;95189.44;;;6.96;69.25
11124;BME280;5616;42.692;23.312;2023-04-29T04:09:19;95200.19;;;6.92;69.73
11124;BME280;5616;42.692;23.312;2023-04-29T04:11:46;95209.88;;;7.22;68.53
11124;BME280;5616;42.692;23.312;2023-04-29T04:14:13;95201.91;;;7.41;67.37
11124;BME280;5616;42.692;23.312;2023-04-29T04:16:40;95207.88;;;7.66;66.36
11124;BME280;5616;42.692;23.312;2023-04-29T04:19:07;95209.97;;;7.62;67.33
11124;BME280;5616;42.692;23.312;2023-04-29T04:21:37;95206.09;;;7.82;66.55
11124;BME280;5616;42.692;23.312;2023-04-29T04:24:08;95197.63;;;7.90;66.36
11124;BME280;5616;42.692;23.312;2023-04-29T04:26:36;95199.69;;;8.11;66.18
11124;BME280;5616;42.692;23.312;2023-04-29T04:29:29;95195.97;;;8.37;64.56
11124;BME280;5616;42.692;23.312;2023-04-29T04:32:13;95190.47;;;8.40;63.46
11124;BME280;5616;42.692;23.312;2023-04-29T04:34:40;95195.25;;;8.59;62.46
11124;BME280;5616;42.692;23.312;2023-04-29T04:37:08;95195.25;;;8.59;62.56
11124;BME280;5616;42.692;23.312;2023-04-29T04:39:37;95206.84;;;8.64;61.39
11124;BME280;5616;42.692;23.312;2023-04-29T04:42:05;95200.06;;;8.63;61.75
11124;BME280;5616;42.692;23.312;2023-04-29T04:44:32;95202.16;;;8.67;61.45
11124;BME280;5616;42.692;23.312;2023-04-29T04:47:13;95211.13;;;8.79;61.36
11124;BME280;5616;42.692;23.312;2023-04-29T04:49:50;95212.28;;;8.77;62.06
11124;BME280;5616;42.692;23.312;2023-04-29T04:52:19;95214.72;;;8.62;61.70
11124;BME280;5616;42.692;23.312;2023-04-29T04:54:53;95206.47;;;8.75;61.40
11124;BME280;5616;42.692;23.312;2023-04-29T04:57:22;95201.16;;;8.76;60.91
11124;BME280;5616;42.692;23.312;2023-04-29T04:59:50;95201.16;;;8.76;61.31
11124;BME280;5616;42.692;23.312;2023-04-29T05:02:17;95194.34;;;8.91;60.51
11124;BME280;5616;42.692;23.312;2023-04-29T05:04:45;95184.84;;;8.92;59.87
11124;BME280;5616;42.692;23.312;2023-04-29T05:07:14;95186.78;;;8.90;61.90
11124;BME280;5616;42.692;23.312;2023-04-29T05:10:09;95188.59;;;8.81;61.03
11124;BME280;5616;42.692;23.312;2023-04-29T05:12:44;95191.28;;;8.88;61.55
11124;BME280;5616;42.692;23.312;2023-04-29T05:15:11;95180.88;;;9.12;60.34
11124;BME280;5616;42.692;23.312;2023-04-29T05:17:41;95171.97;;;9.22;59.74
11124;BME280;5616;42.692;23.312;2023-04-29T05:20:08;95165.56;;;9.18;59.75
11124;BME280;5616;42.692;23.312;2023-04-29T05:22:35;95165.41;;;9.12;59.15
11124;BME280;5616;42.692;23.312;2023-04-29T05:25:02;95168.25;;;9.25;59.45
11124;BME280;5616;42.692;23.312;2023-04-29T05:27:33;95170.19;;;9.46;58.83
11124;BME280;5616;42.692;23.312;2023-04-29T05:30:01;95175.00;;;9.26;58.89
11124;BME280;5616;42.692;23.312;2023-04-29T05:32:28;95168.44;;;9.23;60.22
11124;BME280;5616;42.692;23.312;2023-04-29T05:34:55;95170.72;;;9.41;59.25
11124;BME280;5616;42.692;23.312;2023-04-29T05:37:22;95166.59;;;9.55;58.23
11124;BME280;5616;42.692;23.312;2023-04-29T05:40:05;95159.97;;;9.60;57.91
11124;BME280;5616;42.692;23.312;2023-04-29T05:42:34;95157.28;;;9.91;56.94
11124;BME280;5616;42.692;23.312;2023-04-29T05:45:01;95159.34;;;10.18;56.55
11124;BME280;5616;42.692;23.312;2023-04-29T05:47:32;95160.69;;;10.43;55.93
11124;BME280;5616;42.692;23.312;2023-04-29T05:49:59;95165.31;;;10.48;56.08
11124;BME280;5616;42.692;23.312;2023-04-29T05:52:27;95167.03;;;10.56;55.59
11124;BME280;5616;42.692;23.312;2023-04-29T05:54:54;95172.22;;;10.91;55.49
11124;BME280;5616;42.692;23.312;2023-04-29T05:57:20;95173.34;;;11.18;54.04
11124;BME280;5616;42.692;23.312;2023-04-29T05:59:49;95164.94;;;11.52;53.37
11124;BME280;5616;42.692;23.312;2023-04-29T06:02:15;95164.81;;;11.75;52.52
11124;BME280;5616;42.692;23.312;2023-04-29T06:04:42;95165.81;;;12.01;51.19
11124;BME280;5616;42.692;23.312;2023-04-29T06:07:38;95172.84;;;12.07;51.98
11124;BME280;5616;42.692;23.312;2023-04-29T06:10:23;95169.75;;;12.18;50.52
11124;BME280;5616;42.692;23.312;2023-04-29T06:12:50;95160.88;;;12.34;49.54
11124;BME280;5616;42.692;23.312;2023-04-29T06:15:18;95153.06;;;12.55;49.41
11124;BME280;5616;42.692;23.312;2023-04-29T06:17:45;95157.13;;;12.77;48.22
11124;BME280;5616;42.692;23.312;2023-04-29T06:20:13;95165.19;;;12.89;48.42
11124;BME280;5616;42.692;23.312;2023-04-29T06:22:39;95159.88;;;13.04;48.38
11124;BME280;5616;42.692;23.312;2023-04-29T06:25:07;95163.31;;;13.17;47.92
11124;BME280;5616;42.692;23.312;2023-04-29T06:27:43;95165.59;;;13.40;47.22
11124;BME280;5616;42.692;23.312;2023-04-29T06:30:11;95168.00;;;13.35;46.86
11124;BME280;5616;42.692;23.312;2023-04-29T06:32:39;95162.63;;;13.49;46.03
11124;BME280;5616;42.692;23.312;2023-04-29T06:35:07;95158.25;;;13.70;46.00
11124;BME280;5616;42.692;23.312;2023-04-29T06:38:00;95161.09;;;13.81;45.68
11124;BME280;5616;42.692;23.312;2023-04-29T06:40:36;95156.50;;;13.90;45.41
11124;BME280;5616;42.692;23.312;2023-04-29T06:43:18;95165.09;;;14.23;44.76
11124;BME280;5616;42.692;23.312;2023-04-29T06:45:59;95157.13;;;14.12;45.54
11124;BME280;5616;42.692;23.312;2023-04-29T06:48:36;95157.91;;;14.05;44.87
11124;BME280;5616;42.692;23.312;2023-04-29T06:51:03;95157.31;;;14.36;44.05
11124;BME280;5616;42.692;23.312;2023-04-29T06:53:34;95156.50;;;14.16;45.31
11124;BME280;5616;42.692;23.312;2023-04-29T06:56:01;95154.44;;;14.70;43.45
11124;BME280;5616;42.692;23.312;2023-04-29T06:58:28;95150.50;;;14.61;44.94
11124;BME280;5616;42.692;23.312;2023-04-29T07:00:55;95144.75;;;15.04;42.81
11124;BME280;5616;42.692;23.312;2023-04-29T07:03:21;95148.28;;;15.16;42.56
11124;BME280;5616;42.692;23.312;2023-04-29T07:05:50;95139.06;;;15.20;43.97
11124;BME280;5616;42.692;23.312;2023-04-29T07:08:17;95133.97;;;14.94;44.85
11124;BME280;5616;42.692;23.312;2023-04-29T07:10:52;95128.59;;;14.89;42.46
11124;BME280;5616;42.692;23.312;2023-04-29T07:13:22;95130.72;;;15.05;41.76
11124;BME280;5616;42.692;23.312;2023-04-29T07:15:49;95133.06;;;14.62;43.38
11124;BME280;5616;42.692;23.312;2023-04-29T07:18:16;95130.50;;;15.13;42.80
11124;BME280;5616;42.692;23.312;2023-04-29T07:20:43;95136.59;;;15.31;42.16
11124;BME280;5616;42.692;23.312;2023-04-29T07:23:13;95137.28;;;15.58;40.81
11124;BME280;5616;42.692;23.312;2023-04-29T07:25:40;95131.75;;;16.29;40.29
11124;BME280;5616;42.692;23.312;2023-04-29T07:28:06;95136.38;;;17.36;38.12
11124;BME280;5616;42.692;23.312;2023-04-29T07:30:33;95136.88;;;16.96;38.07
11124;BME280;5616;42.692;23.312;2023-04-29T07:33:02;95136.41;;;17.54;36.53
11124;BME280;5616;42.692;23.312;2023-04-29T07:35:29;95137.34;;;17.71;36.04
11124;BME280;5616;42.692;23.312;2023-04-29T07:37:56;95127.25;;;17.75;36.15
11124;BME280;5616;42.692;23.312;2023-04-29T07:40:25;95129.84;;;18.74;35.31
11124;BME280;5616;42.692;23.312;2023-04-29T07:42:56;95126.69;;;19.80;33.31
11124;BME280;5616;42.692;23.312;2023-04-29T07:45:23;95122.38;;;19.74;33.00
11124;BME280;5616;42.692;23.312;2023-04-29T07:47:50;95129.69;;;20.33;32.23
11124;BME280;5616;42.692;23.312;2023-04-29T07:50:16;95123.97;;;20.58;32.45
11124;BME280;5616;42.692;23.312;2023-04-29T07:52:43;95116.97;;;21.02;30.49
11124;BME280;5616;42.692;23.312;2023-04-29T07:55:10;95115.09;;;21.19;31.07
11124;BME280;5616;42.692;23.312;2023-04-29T07:57:38;95113.25;;;21.94;30.17
11124;BME280;5616;42.692;23.312;2023-04-29T08:00:06;95105.78;;;22.50;28.92
11124;BME280;5616;42.692;23.312;2023-04-29T08:02:40;95100.91;;;23.26;27.45
11124;BME280;5616;42.692;23.312;2023-04-29T08:05:08;95101.41;;;23.12;27.64
11124;BME280;5616;42.692;23.312;2023-04-29T08:07:35;95098.31;;;23.36;28.23
11124;BME280;5616;42.692;23.312;2023-04-29T08:10:02;95102.75;;;23.25;26.23
11124;BME280;5616;42.692;23.312;2023-04-29T08:12:29;95100.47;;;23.49;26.09
11124;BME280;5616;42.692;23.312;2023-04-29T08:14:57;95100.50;;;24.75;24.59
11124;BME280;5616;42.692;23.312;2023-04-29T08:17:24;95090.00;;;25.29;23.35
11124;BME280;5616;42.692;23.312;2023-04-29T08:19:51;95095.38;;;26.06;23.74
11124;BME280;5616;42.692;23.312;2023-04-29T08:22:18;95089.00;;;27.17;22.24
11124;BME280;5616;42.692;23.312;2023-04-29T08:24:45;95091.41;;;26.66;23.08
11124;BME280;5616;42.692;23.312;2023-04-29T08:27:13;95088.06;;;25.44;23.68
11124;BME280;5616;42.692;23.312;2023-04-29T08:29:40;95084.75;;;25.19;23.81
11124;BME280;5616;42.692;23.312;2023-04-29T08:32:09;95094.16;;;24.81;24.59
11124;BME280;5616;42.692;23.312;2023-04-29T08:34:35;95088.09;;;25.88;23.85
11124;BME280;5616;42.692;23.312;2023-04-29T08:37:02;95091.47;;;27.32;22.10
11124;BME280;5616;42.692;23.312;2023-04-29T08:39:29;95086.03;;;29.23;19.73
11124;BME280;5616;42.692;23.312;2023-04-29T08:41:56;95085.56;;;29.21;19.42
11124;BME280;5616;42.692;23.312;2023-04-29T08:44:24;95088.94;;;25.79;23.38
11124;BME280;5616;42.692;23.312;2023-04-29T08:46:51;95091.75;;;23.38;26.04
11124;BME280;5616;42.692;23.312;2023-04-29T08:49:19;95079.91;;;23.56;27.37
11124;BME280;5616;42.692;23.312;2023-04-29T08:51:47;95075.56;;;25.06;24.45
11124;BME280;5616;42.692;23.312;2023-04-29T08:54:14;95073.34;;;26.11;22.86
11124;BME280;5616;42.692;23.312;2023-04-29T08:56:44;95071.44;;;24.85;25.18
11124;BME280;5616;42.692;23.312;2023-04-29T08:59:13;95073.41;;;26.06;22.87
11124;BME280;5616;42.692;23.312;2023-04-29T09:01:42;95070.22;;;26.66;21.76
11124;BME280;5616;42.692;23.312;2023-04-29T09:04:14;95065.63;;;27.01;21.85
11124;BME280;5616;42.692;23.312;2023-04-29T09:06:43;95068.59;;;26.13;22.24
11124;BME280;5616;42.692;23.312;2023-04-29T09:09:11;95066.75;;;24.47;24.98
11124;BME280;5616;42.692;23.312;2023-04-29T09:11:39;95058.34;;;25.19;23.89
11124;BME280;5616;42.692;23.312;2023-04-29T09:14:06;95062.53;;;24.46;25.53
11124;BME280;5616;42.692;23.312;2023-04-29T09:16:33;95065.72;;;22.90;26.51
11124;BME280;5616;42.692;23.312;2023-04-29T09:19:02;95066.75;;;21.73;28.08
11124;BME280;5616;42.692;23.312;2023-04-29T09:21:29;95062.59;;;21.77;27.76
11124;BME280;5616;42.692;23.312;2023-04-29T09:23:59;95056.31;;;21.03;30.78
11124;BME280;5616;42.692;23.312;2023-04-29T09:26:26;95050.91;;;20.28;31.45
11124;BME280;5616;42.692;23.312;2023-04-29T09:29:06;95054.22;;;20.40;30.39
11124;BME280;5616;42.692;23.312;2023-04-29T09:31:36;95052.97;;;20.64;30.32
11124;BME280;5616;42.692;23.312;2023-04-29T09:34:03;95049.81;;;19.91;44.32
11124;BME280;5616;42.692;23.312;2023-04-29T09:36:41;95037.56;;;20.13;31.46
11124;BME280;5616;42.692;23.312;2023-04-29T09:39:12;95037.59;;;20.51;30.40
11124;BME280;5616;42.692;23.312;2023-04-29T09:41:42;95037.50;;;20.25;31.15
11124;BME280;5616;42.692;23.312;2023-04-29T09:44:23;95031.19;;;20.26;30.70
11124;BME280;5616;42.692;23.312;2023-04-29T09:46:54;95029.75;;;20.35;30.29
11124;BME280;5616;42.692;23.312;2023-04-29T09:49:22;95034.16;;;20.94;29.38
11124;BME280;5616;42.692;23.312;2023-04-29T09:51:56;95012.81;;;21.07;28.82
11124;BME280;5616;42.692;23.312;2023-04-29T09:54:26;95023.81;;;20.61;29.38
11124;BME280;5616;42.692;23.312;2023-04-29T09:56:54;95006.19;;;20.56;29.58
11124;BME280;5616;42.692;23.312;2023-04-29T09:59:22;95011.44;;;20.56;29.92
11124;BME280;5616;42.692;23.312;2023-04-29T10:01:50;95007.38;;;20.27;30.31
11124;BME280;5616;42.692;23.312;2023-04-29T10:04:18;94998.16;;;20.25;30.55
11124;BME280;5616;42.692;23.312;2023-04-29T10:06:48;95003.78;;;20.17;32.42
11124;BME280;5616;42.692;23.312;2023-04-29T10:09:17;94995.13;;;20.16;30.78
11124;BME280;5616;42.692;23.312;2023-04-29T10:11:46;94996.00;;;20.05;29.71
11124;BME280;5616;42.692;23.312;2023-04-29T10:14:16;94994.75;;;20.24;29.72
11124;BME280;5616;42.692;23.312;2023-04-29T10:16:47;94991.22;;;20.35;29.46
11124;BME280;5616;42.692;23.312;2023-04-29T10:19:20;94987.81;;;20.35;31.03
11124;BME280;5616;42.692;23.312;2023-04-29T10:21:53;94989.53;;;20.46;30.53
11124;BME280;5616;42.692;23.312;2023-04-29T10:24:20;94989.44;;;20.62;28.71
11124;BME280;5616;42.692;23.312;2023-04-29T10:26:50;94991.84;;;20.64;29.37
11124;BME280;5616;42.692;23.312;2023-04-29T10:29:17;94976.56;;;20.61;30.21
11124;BME280;5616;42.692;23.312;2023-04-29T10:31:45;94983.69;;;20.22;32.45
11124;BME280;5616;42.692;23.312;2023-04-29T10:34:12;94980.88;;;19.90;32.23
11124;BME280;5616;42.692;23.312;2023-04-29T10:36:42;94980.63;;;19.92;32.44
11124;BME280;5616;42.692;23.312;2023-04-29T10:39:18;94975.28;;;20.20;31.47
11124;BME280;5616;42.692;23.312;2023-04-29T10:41:50;94979.31;;;20.28;31.12
11124;BME280;5616;42.692;23.312;2023-04-29T10:44:17;94981.28;;;19.99;31.04
11124;BME280;5616;42.692;23.312;2023-04-29T10:46:44;94976.72;;;20.11;30.66
11124;BME280;5616;42.692;23.312;2023-04-29T10:49:10;94975.38;;;20.08;33.61
11124;BME280;5616;42.692;23.312;2023-04-29T10:51:39;94979.81;;;20.25;33.75
11124;BME280;5616;42.692;23.312;2023-04-29T10:54:08;94978.78;;;20.47;31.92
11124;BME280;5616;42.692;23.312;2023-04-29T10:56:43;94973.13;;;20.82;30.55
11124;BME280;5616;42.692;23.312;2023-04-29T10:59:13;94971.03;;;21.06;30.92
11124;BME280;5616;42.692;23.312;2023-04-29T11:01:43;94979.09;;;21.26;28.92
11124;BME280;5616;42.692;23.312;2023-04-29T11:04:10;94967.28;;;21.23;29.17
11124;BME280;5616;42.692;23.312;2023-04-29T11:06:39;94966.69;;;21.16;28.26
11124;BME280;5616;42.692;23.312;2023-04-29T11:09:11;94966.44;;;20.69;29.52
11124;BME280;5616;42.692;23.312;2023-04-29T11:11:43;94960.13;;;20.44;28.47
11124;BME280;5616;42.692;23.312;2023-04-29T11:14:11;94956.38;;;19.63;30.17
11124;BME280;5616;42.692;23.312;2023-04-29T11:16:46;94957.09;;;19.59;26.29
11124;BME280;5616;42.692;23.312;2023-04-29T11:19:14;94963.06;;;18.81;28.49
11124;BME280;5616;42.692;23.312;2023-04-29T11:21:41;94962.47;;;18.90;28.45
11124;BME280;5616;42.692;23.312;2023-04-29T11:24:10;94959.63;;;18.92;30.57
11124;BME280;5616;42.692;23.312;2023-04-29T11:26:37;94965.97;;;18.96;28.85
11124;BME280;5616;42.692;23.312;2023-04-29T11:29:04;94962.75;;;19.06;29.49
11124;BME280;5616;42.692;23.312;2023-04-29T11:31:34;94963.06;;;19.09;27.84
11124;BME280;5616;42.692;23.312;2023-04-29T11:34:03;94959.94;;;18.96;29.94
11124;BME280;5616;42.692;23.312;2023-04-29T11:36:30;94961.06;;;19.00;29.96
11124;BME280;5616;42.692;23.312;2023-04-29T11:38:59;94954.44;;;19.25;28.23
11124;BME280;5616;42.692;23.312;2023-04-29T11:41:26;94950.19;;;19.52;27.49
11124;BME280;5616;42.692;23.312;2023-04-29T11:43:57;94947.09;;;19.72;27.59
11124;BME280;5616;42.692;23.312;2023-04-29T11:46:24;94951.19;;;19.68;29.20
11124;BME280;5616;42.692;23.312;2023-04-29T11:48:56;94955.38;;;19.19;28.20
11124;BME280;5616;42.692;23.312;2023-04-29T11:51:23;94955.53;;;18.96;28.47
11124;BME280;5616;42.692;23.312;2023-04-29T11:53:50;94952.00;;;18.62;29.38
11124;BME280;5616;42.692;23.312;2023-04-29T11:56:20;94950.25;;;18.40;29.66
11124;BME280;5616;42.692;23.312;2023-04-29T11:58:48;94953.03;;;18.61;29.08
11124;BME280;5616;42.692;23.312;2023-04-29T12:01:15;94953.47;;;18.70;28.92
11124;BME280;5616;42.692;23.312;2023-04-29T12:03:42;94954.34;;;18.75;29.03
11124;BME280;5616;42.692;23.312;2023-04-29T12:06:12;94945.50;;;18.65;30.03
11124;BME280;5616;42.692;23.312;2023-04-29T12:08:39;94948.78;;;18.20;30.95
11124;BME280;5616;42.692;23.312;2023-04-29T12:11:06;94946.97;;;18.32;33.03
11124;BME280;5616;42.692;23.312;2023-04-29T12:13:33;94946.69;;;18.06;34.42
11124;BME280;5616;42.692;23.312;2023-04-29T12:16:01;94943.16;;;18.12;34.94
11124;BME280;5616;42.692;23.312;2023-04-29T12:18:28;94942.00;;;18.19;34.24
11124;BME280;5616;42.692;23.312;2023-04-29T12:20:55;94938.84;;;18.46;33.80
11124;BME280;5616;42.692;23.312;2023-04-29T12:23:24;94939.13;;;18.32;33.20
11124;BME280;5616;42.692;23.312;2023-04-29T12:25:53;94932.25;;;18.55;33.16
11124;BME280;5616;42.692;23.312;2023-04-29T12:28:21;94930.47;;;18.72;32.87
11124;BME280;5616;42.692;23.312;2023-04-29T12:30:49;94921.31;;;18.86;31.92
11124;BME280;5616;42.692;23.312;2023-04-29T12:33:18;94928.56;;;18.96;31.65
11124;BME280;5616;42.692;23.312;2023-04-29T12:35:46;94915.59;;;18.72;33.27
11124;BME280;5616;42.692;23.312;2023-04-29T12:38:15;94924.81;;;18.91;32.43
11124;BME280;5616;42.692;23.312;2023-04-29T12:40:44;94920.53;;;19.02;31.35
11124;BME280;5616;42.692;23.312;2023-04-29T12:43:11;94914.38;;;19.08;31.79
11124;BME280;5616;42.692;23.312;2023-04-29T12:45:39;94915.47;;;19.12;31.10
11124;BME280;5616;42.692;23.312;2023-04-29T12:48:06;94912.06;;;19.28;30.58
11124;BME280;5616;42.692;23.312;2023-04-29T12:50:34;94919.63;;;19.41;32.54
11124;BME280;5616;42.692;23.312;2023-04-29T12:53:02;94912.97;;;19.50;31.13
11124;BME280;5616;42.692;23.312;2023-04-29T12:55:31;94908.81;;;19.54;31.79
11124;BME280;5616;42.692;23.312;2023-04-29T12:58:01;94914.72;;;19.62;31.78
11124;BME280;5616;42.692;23.312;2023-04-29T13:00:28;94917.88;;;19.64;33.70
11124;BME280;5616;42.692;23.312;2023-04-29T13:02:54;94911.00;;;19.41;32.42
11124;BME280;5616;42.692;23.312;2023-04-29T13:05:21;94910.09;;;19.35;32.61
11124;BME280;5616;42.692;23.312;2023-04-29T13:07:48;94913.03;;;19.22;32.95
11124;BME280;5616;42.692;23.312;2023-04-29T13:10:15;94905.97;;;19.39;32.25
11124;BME280;5616;42.692;23.312;2023-04-29T13:12:42;94915.66;;;19.56;33.34
11124;BME280;5616;42.692;23.312;2023-04-29T13:15:10;94909.00;;;19.48;35.89
11124;BME280;5616;42.692;23.312;2023-04-29T13:17:38;94905.50;;;19.42;36.15